OPA Logo
 
ASOS:
At:2020.05.28 0735 UTC
Wind:290° @ 5KT
Viz: 10 mile(s)
Sky: clear
Temp: 60 F (16 C)
DewP: 30 F (-1 C)
RH: 31%
Baro: 30.12 in.
ob: KBDN 280735Z AUTO 29005KT 10SM CLR 16/M01 A3012 RMK AO2

ASOS: KRDM
At:2020.05.28 0656 UTC
Wind:
Viz: 10 mile(s)
Sky: clear
Temp: 61.0 F (16.1 C)
DewP: 30.9 F (-0.6 C)
RH: 31%
Baro: 30.11 in.
ob: KRDM 280656Z AUTO 00000KT 10SM CLR 16/M01 A3011 RMK AO2 SLP173 T01611006
Apache-SSL Logo

Valid HTML 4.01!

Local FAA Notices



15 May 2002 - FAA APPROVES 4 new antennas near St. Charles Hospital


2 May 2002, FAA Northwest Mountain Region Letter to Airmen 02-01

VFR Practice Approaches: Page 1, Page 2, Page 3, Page 4.


11 Apr 2002 - FAA Public Notice, 4 new antennas near St. Charles Hospital



Web page by: gem@rellim.com